createdAt,value
2023-05-10T00:02:04.058Z,6.53
2023-05-10T00:04:31.891Z,7.55
2023-05-10T00:06:59.739Z,4.25
2023-05-10T00:09:27.595Z,5.95
2023-05-10T00:11:55.459Z,5.55
2023-05-10T00:14:23.427Z,4.25
2023-05-10T00:16:51.489Z,8.57
2023-05-10T00:19:19.666Z,4.60
2023-05-10T00:21:47.685Z,6.10
2023-05-10T00:24:15.561Z,6.10
2023-05-10T00:26:43.506Z,4.78
2023-05-10T00:29:11.503Z,6.28
2023-05-10T00:31:39.373Z,5.43
2023-05-10T00:34:07.258Z,4.90
2023-05-10T00:36:35.021Z,3.90
2023-05-10T00:39:04.671Z,4.45
2023-05-10T00:41:35.300Z,5.80
2023-05-10T00:44:05.297Z,3.55
2023-05-10T00:46:33.605Z,5.35
2023-05-10T00:49:01.677Z,3.60
2023-05-10T00:51:32.424Z,3.28
2023-05-10T00:54:00.833Z,2.63
2023-05-10T00:56:30.754Z,2.63
2023-05-10T00:58:58.943Z,3.08
2023-05-10T01:01:26.992Z,2.80
2023-05-10T01:03:56.555Z,3.97
2023-05-10T01:06:24.481Z,2.95
2023-05-10T01:08:53.624Z,2.65
2023-05-10T01:11:22.380Z,2.40
2023-05-10T01:13:57.637Z,2.55
2023-05-10T01:16:28.043Z,2.45
2023-05-10T01:18:56.455Z,2.97
2023-05-10T01:21:33.609Z,3.42
2023-05-10T01:24:10.557Z,2.38
2023-05-10T01:27:00.219Z,3.35
2023-05-10T01:29:46.416Z,2.97
2023-05-10T01:32:32.867Z,2.38
2023-05-10T01:35:21.293Z,1.98
2023-05-10T01:38:14.814Z,1.98
2023-05-10T01:41:00.764Z,2.50
2023-05-10T01:43:34.572Z,1.52
2023-05-10T01:46:11.712Z,2.10
2023-05-10T01:48:48.064Z,5.70
2023-05-10T01:51:23.045Z,2.50
2023-05-10T01:53:52.888Z,3.20
2023-05-10T01:56:25.538Z,1.88
2023-05-10T01:58:55.810Z,2.75
2023-05-10T02:01:25.173Z,2.65
2023-05-10T02:03:53.583Z,2.55
2023-05-10T02:06:23.376Z,2.83
2023-05-10T02:08:52.784Z,2.85
2023-05-10T02:11:22.131Z,2.08
2023-05-10T02:13:52.852Z,3.45
2023-05-10T02:16:25.098Z,2.00
2023-05-10T02:18:54.189Z,3.10
2023-05-10T02:21:23.274Z,3.28
2023-05-10T02:23:53.414Z,3.55
2023-05-10T02:26:25.070Z,3.55
2023-05-10T02:28:56.001Z,3.25
2023-05-10T02:31:24.507Z,2.40
2023-05-10T02:33:53.776Z,4.15
2023-05-10T02:36:23.426Z,2.35
2023-05-10T02:38:54.256Z,1.98
2023-05-10T02:41:24.022Z,4.82
2023-05-10T02:43:54.750Z,2.65
2023-05-10T02:46:22.706Z,3.22
2023-05-10T02:48:50.588Z,5.10
2023-05-10T02:51:20.890Z,4.88
2023-05-10T02:53:52.165Z,2.53
2023-05-10T02:56:37.740Z,6.00
2023-05-10T02:59:06.159Z,4.13
2023-05-10T03:01:34.311Z,3.22
2023-05-10T03:04:02.244Z,5.80
2023-05-10T03:06:30.347Z,3.92
2023-05-10T03:08:58.721Z,4.60
2023-05-10T03:11:33.613Z,3.72
2023-05-10T03:14:18.598Z,3.10
2023-05-10T03:17:04.756Z,3.83
2023-05-10T03:19:44.476Z,5.07
2023-05-10T03:22:20.800Z,4.07
2023-05-10T03:24:50.977Z,2.72
2023-05-10T03:27:19.990Z,4.22
2023-05-10T03:29:48.236Z,6.15
2023-05-10T03:32:16.679Z,4.00
2023-05-10T03:34:44.618Z,3.90
2023-05-10T03:37:12.607Z,2.67
2023-05-10T03:39:40.883Z,4.85
2023-05-10T03:42:13.059Z,3.53
2023-05-10T03:44:41.299Z,2.72
2023-05-10T03:47:10.330Z,3.03
2023-05-10T03:49:38.381Z,7.03
2023-05-10T03:52:06.534Z,3.90
2023-05-10T03:54:34.477Z,4.40
2023-05-10T03:57:02.431Z,3.28
2023-05-10T03:59:31.565Z,4.97
2023-05-10T04:01:59.601Z,4.72
2023-05-10T04:04:27.478Z,6.65
2023-05-10T04:06:56.076Z,3.97
2023-05-10T04:09:23.874Z,3.72
2023-05-10T04:11:51.838Z,3.10
2023-05-10T04:14:19.760Z,4.68
2023-05-10T04:16:47.724Z,3.40
2023-05-10T04:19:15.690Z,5.47
2023-05-10T04:21:43.655Z,2.85
2023-05-10T04:24:13.061Z,4.95
2023-05-10T04:26:41.443Z,3.67
2023-05-10T04:29:10.728Z,3.80
2023-05-10T04:31:38.727Z,4.18
2023-05-10T04:34:06.875Z,3.28
2023-05-10T04:36:36.928Z,2.92
2023-05-10T04:39:05.440Z,4.18
2023-05-10T04:41:33.292Z,5.15
2023-05-10T04:44:01.268Z,3.45
2023-05-10T04:46:29.248Z,3.75
2023-05-10T04:48:57.071Z,3.20
2023-05-10T04:51:25.006Z,3.22
2023-05-10T04:54:05.090Z,3.72
2023-05-10T04:56:34.754Z,5.38
2023-05-10T04:59:03.078Z,3.65
2023-05-10T05:01:31.233Z,3.92
2023-05-10T05:03:59.788Z,5.18
2023-05-10T05:06:28.450Z,3.08
2023-05-10T05:08:56.336Z,3.97
2023-05-10T05:11:24.356Z,3.67
2023-05-10T05:13:52.849Z,4.57
2023-05-10T05:16:20.718Z,4.38
2023-05-10T05:18:48.907Z,6.57
2023-05-10T05:21:18.416Z,4.43
2023-05-10T05:23:46.752Z,4.15
2023-05-10T05:26:16.041Z,2.85
2023-05-10T05:28:44.211Z,5.07
2023-05-10T05:31:12.419Z,4.00
2023-05-10T05:33:41.270Z,3.22
2023-05-10T05:36:09.334Z,3.55
2023-05-10T05:38:37.189Z,4.63
2023-05-10T05:41:05.128Z,3.53
2023-05-10T05:43:32.922Z,3.20
2023-05-10T05:46:00.911Z,2.35
2023-05-10T05:48:30.592Z,3.65
2023-05-10T05:50:58.877Z,5.97
2023-05-10T05:53:26.966Z,2.95
2023-05-10T05:55:59.464Z,2.42
2023-05-10T05:58:28.115Z,3.58
2023-05-10T06:00:55.950Z,3.83
2023-05-10T06:03:23.960Z,4.00
2023-05-10T06:05:51.982Z,4.45
2023-05-10T06:08:19.890Z,4.55
2023-05-10T06:10:47.758Z,2.38
2023-05-10T06:13:15.810Z,4.78
2023-05-10T06:15:43.718Z,3.63
2023-05-10T06:18:11.641Z,3.03
2023-05-10T06:20:39.631Z,4.07
2023-05-10T06:23:07.471Z,3.13
2023-05-10T06:25:35.358Z,2.72
2023-05-10T06:28:03.189Z,2.63
2023-05-10T06:30:31.188Z,7.88
2023-05-10T06:32:59.248Z,4.88
2023-05-10T06:35:27.242Z,5.25
2023-05-10T06:37:55.596Z,3.33
2023-05-10T06:40:23.482Z,3.88
2023-05-10T06:42:51.525Z,4.05
2023-05-10T06:45:19.568Z,2.53
2023-05-10T06:47:47.860Z,2.22
2023-05-10T06:50:16.270Z,2.78
2023-05-10T06:52:44.639Z,2.95
2023-05-10T06:55:12.638Z,2.83
2023-05-10T06:57:40.667Z,3.58
2023-05-10T07:00:10.761Z,3.60
2023-05-10T07:02:38.921Z,2.83
2023-05-10T07:05:07.567Z,2.38
2023-05-10T07:07:35.751Z,7.28
2023-05-10T07:10:03.985Z,3.67
2023-05-10T07:12:31.986Z,3.50
2023-05-10T07:14:59.991Z,3.55
2023-05-10T07:17:27.869Z,3.08
2023-05-10T07:19:55.819Z,3.25
2023-05-10T07:22:24.032Z,2.80
2023-05-10T07:24:51.913Z,3.42
2023-05-10T07:27:19.754Z,2.60
2023-05-10T07:29:47.640Z,4.63
2023-05-10T07:32:15.724Z,2.58
2023-05-10T07:34:43.774Z,3.75
2023-05-10T07:37:11.563Z,2.75
2023-05-10T07:39:39.487Z,4.13
2023-05-10T07:42:07.465Z,4.80
2023-05-10T07:44:35.362Z,2.55
2023-05-10T07:47:03.167Z,4.13
2023-05-10T07:49:31.095Z,3.05
2023-05-10T07:51:59.056Z,3.70
2023-05-10T07:54:27.132Z,3.13
2023-05-10T07:56:55.007Z,4.10
2023-05-10T07:59:22.958Z,2.35
2023-05-10T08:01:50.968Z,3.85
2023-05-10T08:04:18.816Z,2.75
2023-05-10T08:06:46.725Z,2.63
2023-05-10T08:09:14.740Z,4.00
2023-05-10T08:11:42.595Z,3.65
2023-05-10T08:14:10.501Z,4.45
2023-05-10T08:16:38.528Z,2.45
2023-05-10T08:19:06.481Z,2.85
2023-05-10T08:21:34.629Z,3.63
2023-05-10T08:24:02.989Z,2.78
2023-05-10T08:26:31.835Z,3.50
2023-05-10T08:28:59.801Z,2.28
2023-05-10T08:31:27.889Z,4.30
2023-05-10T08:33:56.039Z,2.50
2023-05-10T08:36:25.531Z,4.30
2023-05-10T08:38:53.799Z,4.05
2023-05-10T08:41:22.981Z,3.10
2023-05-10T08:43:52.197Z,3.47
2023-05-10T08:46:21.236Z,3.50
2023-05-10T08:48:51.738Z,5.32
2023-05-10T08:51:23.403Z,4.30
2023-05-10T08:53:51.646Z,3.13
2023-05-10T08:56:21.434Z,3.80
2023-05-10T08:58:50.836Z,5.32
2023-05-10T09:01:19.740Z,9.88
2023-05-10T09:03:48.714Z,15.15
2023-05-10T09:06:16.942Z,5.68
2023-05-10T09:08:45.973Z,2.60
2023-05-10T09:11:14.466Z,2.83
2023-05-10T09:13:43.657Z,5.28
2023-05-10T09:16:21.404Z,2.95
2023-05-10T09:18:50.843Z,4.38
2023-05-10T09:21:20.474Z,3.25
2023-05-10T09:23:51.324Z,3.15
2023-05-10T09:26:23.809Z,4.53
2023-05-10T09:28:53.721Z,2.95
2023-05-10T09:31:21.817Z,3.92
2023-05-10T09:33:50.921Z,2.22
2023-05-10T09:36:19.006Z,2.67
2023-05-10T09:38:52.984Z,4.50
2023-05-10T09:41:23.033Z,2.35
2023-05-10T09:43:51.405Z,3.13
2023-05-10T09:46:19.316Z,2.30
2023-05-10T09:48:48.863Z,2.95
2023-05-10T09:51:21.613Z,2.42
2023-05-10T09:53:51.733Z,3.38
2023-05-10T09:56:37.033Z,2.38
2023-05-10T09:59:05.776Z,2.33
2023-05-10T10:01:34.787Z,3.03
2023-05-10T10:04:08.392Z,2.95
2023-05-10T10:06:40.639Z,3.00
2023-05-10T10:09:09.493Z,2.20
2023-05-10T10:11:38.488Z,2.33
2023-05-10T10:14:06.810Z,3.45
2023-05-10T10:16:35.115Z,2.50
2023-05-10T10:19:03.341Z,4.78
2023-05-10T10:21:32.217Z,2.10
2023-05-10T10:24:00.176Z,2.58
2023-05-10T10:26:28.464Z,2.55
2023-05-10T10:29:08.090Z,4.28
2023-05-10T10:32:14.956Z,3.40
2023-05-10T10:34:42.966Z,3.88
2023-05-10T10:37:11.062Z,2.75
2023-05-10T10:39:38.966Z,2.67
2023-05-10T10:42:06.897Z,3.03
2023-05-10T10:44:39.054Z,2.38
2023-05-10T10:47:13.326Z,3.75
2023-05-10T10:49:41.253Z,2.85
2023-05-10T10:52:32.118Z,3.50
2023-05-10T10:55:00.187Z,3.40
2023-05-10T10:57:31.242Z,4.88
2023-05-10T11:00:22.485Z,4.45
2023-05-10T11:02:54.908Z,2.10
2023-05-10T11:05:37.613Z,2.40
2023-05-10T11:08:17.526Z,2.42
2023-05-10T11:11:00.542Z,2.03
2023-05-10T11:13:32.553Z,2.78
2023-05-10T11:16:15.075Z,2.42
2023-05-10T11:18:54.677Z,4.40
2023-05-10T11:21:22.846Z,2.58
2023-05-10T11:23:53.150Z,2.53
2023-05-10T11:26:24.337Z,2.75
2023-05-10T11:28:56.042Z,2.45
2023-05-10T11:31:25.065Z,4.95
2023-05-10T11:33:55.638Z,2.50
2023-05-10T11:36:28.575Z,3.30
2023-05-10T11:38:57.926Z,3.53
2023-05-10T11:41:27.933Z,4.63
2023-05-10T11:43:57.708Z,4.75
2023-05-10T11:46:28.080Z,3.33
2023-05-10T11:49:02.719Z,3.63
2023-05-10T11:51:31.295Z,3.60
2023-05-10T11:53:59.215Z,4.07
2023-05-10T11:56:27.720Z,4.72
2023-05-10T11:58:57.448Z,4.13
2023-05-10T12:01:27.727Z,4.32
2023-05-10T12:04:01.619Z,4.10
2023-05-10T12:09:00.842Z,3.55
2023-05-10T12:11:29.841Z,2.85
2023-05-10T12:13:57.887Z,2.67
2023-05-10T12:16:29.497Z,4.18
2023-05-10T12:19:00.362Z,2.72
2023-05-10T12:21:31.819Z,2.67
2023-05-10T12:24:04.840Z,2.67
2023-05-10T12:26:33.277Z,3.65
2023-05-10T12:29:17.900Z,5.88
2023-05-10T12:32:00.011Z,4.05
2023-05-10T12:34:40.156Z,2.92
2023-05-10T12:37:08.682Z,4.47
2023-05-10T12:39:44.190Z,3.85
2023-05-10T12:42:12.345Z,3.75
2023-05-10T12:44:41.456Z,3.05
2023-05-10T12:47:09.603Z,2.88
2023-05-10T12:49:37.485Z,2.47
2023-05-10T12:52:05.602Z,3.50
2023-05-10T12:54:33.520Z,3.03
2023-05-10T12:57:01.618Z,4.68
2023-05-10T12:59:29.402Z,3.58
2023-05-10T13:01:58.768Z,3.58
2023-05-10T13:04:26.932Z,2.97
2023-05-10T13:06:59.620Z,3.78
2023-05-10T13:09:30.584Z,3.20
2023-05-10T13:11:58.501Z,3.10
2023-05-10T13:14:26.680Z,3.58
2023-05-10T13:16:55.233Z,2.88
2023-05-10T13:19:23.141Z,3.72
2023-05-10T13:21:51.020Z,3.22
2023-05-10T13:24:18.934Z,3.22
2023-05-10T13:26:47.033Z,6.22
2023-05-10T13:29:14.958Z,3.95
2023-05-10T13:31:42.855Z,3.30
2023-05-10T13:34:10.824Z,2.88
2023-05-10T13:36:39.302Z,5.22
2023-05-10T13:39:07.233Z,3.92
2023-05-10T13:41:35.364Z,4.80
2023-05-10T13:44:03.300Z,2.35
2023-05-10T13:46:32.029Z,2.65
2023-05-10T13:49:00.061Z,2.88
2023-05-10T13:51:28.036Z,3.58
2023-05-10T13:53:55.975Z,2.95
2023-05-10T13:56:23.784Z,2.25
2023-05-10T13:58:51.694Z,4.50
2023-05-10T14:01:19.724Z,2.38
2023-05-10T14:03:47.749Z,2.17
2023-05-10T14:06:15.655Z,2.50
2023-05-10T14:08:43.506Z,3.13
2023-05-10T14:11:11.354Z,4.63
2023-05-10T14:13:39.212Z,3.72
2023-05-10T14:16:07.385Z,2.83
2023-05-10T14:18:35.288Z,2.97
2023-05-10T14:21:04.047Z,2.22
2023-05-10T14:23:32.088Z,3.60
2023-05-10T14:26:00.066Z,2.60
2023-05-10T14:28:28.113Z,3.30
2023-05-10T14:30:55.990Z,2.53
2023-05-10T14:33:23.909Z,5.13
2023-05-10T14:35:52.024Z,2.15
2023-05-10T14:38:21.764Z,2.35
2023-05-10T14:40:50.756Z,4.13
2023-05-10T14:43:18.725Z,2.40
2023-05-10T14:45:48.995Z,2.22
2023-05-10T14:48:18.737Z,5.13
2023-05-10T14:50:47.266Z,2.53
2023-05-10T14:53:15.680Z,2.25
2023-05-10T14:55:43.816Z,4.03
2023-05-10T14:58:12.042Z,2.95
2023-05-10T15:00:42.096Z,2.83
2023-05-10T15:03:10.732Z,2.90
2023-05-10T15:05:39.835Z,3.20
2023-05-10T15:08:07.828Z,2.45
2023-05-10T15:10:36.192Z,3.20
2023-05-10T15:13:05.469Z,3.67
2023-05-10T15:15:33.500Z,3.22
2023-05-10T15:18:01.523Z,4.05
2023-05-10T15:20:29.504Z,3.33
2023-05-10T15:22:57.362Z,2.38
2023-05-10T15:25:27.411Z,2.63
2023-05-10T15:27:55.987Z,3.45
2023-05-10T15:30:23.972Z,3.08
2023-05-10T15:32:51.972Z,4.45
2023-05-10T15:35:20.157Z,2.92
2023-05-10T15:37:49.378Z,3.47
2023-05-10T15:40:17.402Z,2.20
2023-05-10T15:42:45.247Z,3.42
2023-05-10T15:45:13.296Z,2.60
2023-05-10T15:47:41.231Z,1.77
2023-05-10T15:50:10.154Z,2.63
2023-05-10T15:52:42.568Z,2.88
2023-05-10T15:55:14.694Z,2.47
2023-05-10T15:57:44.430Z,2.20
2023-05-10T16:00:13.856Z,2.17
2023-05-10T16:02:42.053Z,2.05
2023-05-10T16:05:10.372Z,2.60
2023-05-10T16:07:38.227Z,2.08
2023-05-10T16:10:07.128Z,2.42
2023-05-10T16:12:35.120Z,2.30
2023-05-10T16:15:03.072Z,2.63
2023-05-10T16:17:31.681Z,2.00
2023-05-10T16:19:59.606Z,1.83
2023-05-10T16:22:28.958Z,1.95
2023-05-10T16:25:00.009Z,6.45
2023-05-10T16:27:30.441Z,4.72
2023-05-10T16:29:58.316Z,4.82
2023-05-10T16:32:26.363Z,5.22
2023-05-10T16:34:54.296Z,2.97
2023-05-10T16:37:22.104Z,2.28
2023-05-10T16:39:49.966Z,1.98
2023-05-10T16:42:18.350Z,2.60
2023-05-10T16:44:46.461Z,2.78
2023-05-10T16:47:14.363Z,2.17
2023-05-10T16:49:42.380Z,1.90
2023-05-10T16:52:10.428Z,3.00
2023-05-10T16:54:38.372Z,2.15
2023-05-10T16:57:06.497Z,2.10
2023-05-10T16:59:34.397Z,3.33
2023-05-10T17:02:02.363Z,2.25
2023-05-10T17:04:30.907Z,2.22
2023-05-10T17:06:58.848Z,3.25
2023-05-10T17:09:26.727Z,2.55
2023-05-10T17:11:54.586Z,4.90
2023-05-10T17:14:22.481Z,2.67
2023-05-10T17:16:52.923Z,2.25
2023-05-10T17:19:23.039Z,3.25
2023-05-10T17:21:52.196Z,2.63
2023-05-10T17:24:20.233Z,2.95
2023-05-10T17:26:48.167Z,7.75
2023-05-10T17:29:16.402Z,5.25
2023-05-10T17:31:44.279Z,2.83
2023-05-10T17:34:12.168Z,5.30
2023-05-10T17:36:40.126Z,2.88
2023-05-10T17:39:07.917Z,4.05
2023-05-10T17:41:35.795Z,2.70
2023-05-10T17:44:03.665Z,4.40
2023-05-10T17:46:31.502Z,3.65
2023-05-10T17:48:59.419Z,4.82
2023-05-10T17:51:27.211Z,5.57
2023-05-10T17:53:55.147Z,5.22
2023-05-10T17:56:23.150Z,5.50
2023-05-10T17:58:51.263Z,4.28
2023-05-10T18:01:19.224Z,6.57
2023-05-10T18:03:49.454Z,6.05
2023-05-10T18:06:17.611Z,5.38
2023-05-10T18:08:45.503Z,5.32
2023-05-10T18:11:13.550Z,4.57
2023-05-10T18:13:41.542Z,6.85
2023-05-10T18:16:12.862Z,6.05
2023-05-10T18:18:41.029Z,5.68
2023-05-10T18:21:08.954Z,4.75
2023-05-10T18:23:36.802Z,5.43
2023-05-10T18:26:04.856Z,8.00
2023-05-10T18:28:32.757Z,8.00
2023-05-10T18:31:01.043Z,7.80
2023-05-10T18:33:29.228Z,8.98
2023-05-10T18:35:57.173Z,5.47
2023-05-10T18:38:26.347Z,5.63
2023-05-10T18:40:54.768Z,9.25
2023-05-10T18:43:22.773Z,6.35
2023-05-10T18:45:51.413Z,4.40
2023-05-10T18:48:19.565Z,4.88
2023-05-10T18:50:49.986Z,5.32
2023-05-10T18:53:21.749Z,4.82
2023-05-10T18:55:58.016Z,6.25
2023-05-10T18:58:30.098Z,5.03
2023-05-10T19:00:59.020Z,4.00
2023-05-10T19:03:29.625Z,6.38
2023-05-10T19:05:59.325Z,9.93
2023-05-10T19:08:27.715Z,6.45
2023-05-10T19:10:56.839Z,7.22
2023-05-10T19:13:24.993Z,7.25
2023-05-10T19:16:07.182Z,8.85
2023-05-10T19:21:46.274Z,9.45
2023-05-10T19:24:14.296Z,9.15
2023-05-10T19:26:43.191Z,8.98
2023-05-10T19:29:16.018Z,10.13
2023-05-10T19:31:45.379Z,8.70
2023-05-10T19:34:15.464Z,10.52
2023-05-10T19:36:44.263Z,10.10
2023-05-10T19:39:15.844Z,7.90
2023-05-10T19:41:43.956Z,10.13
2023-05-10T19:44:12.698Z,9.63
2023-05-10T19:46:41.818Z,11.30
2023-05-10T19:49:10.487Z,10.57
2023-05-10T19:51:38.370Z,9.55
2023-05-10T19:54:06.994Z,11.95
2023-05-10T19:56:35.054Z,9.20
2023-05-10T19:59:04.027Z,9.35
2023-05-10T20:01:33.082Z,9.85
2023-05-10T20:04:11.135Z,9.88
2023-05-10T20:06:41.085Z,10.93
2023-05-10T20:09:10.315Z,9.23
2023-05-10T20:11:40.138Z,8.60
2023-05-10T22:02:41.262Z,3.20
2023-05-10T22:05:09.712Z,1.17
2023-05-10T22:07:37.428Z,1.80
2023-05-10T22:10:05.866Z,1.50
2023-05-10T22:12:33.558Z,1.50
2023-05-10T22:15:10.522Z,2.25
2023-05-10T22:17:40.161Z,1.67
2023-05-10T22:20:08.863Z,1.92
2023-05-10T22:22:36.945Z,1.55
2023-05-10T22:25:07.504Z,1.80
2023-05-10T22:27:35.533Z,1.73
2023-05-10T22:30:04.299Z,3.00
2023-05-10T22:32:34.301Z,2.47
2023-05-10T22:35:02.494Z,2.38
2023-05-10T22:37:30.203Z,1.35
2023-05-10T22:39:57.970Z,2.05
2023-05-10T22:42:26.030Z,1.20
2023-05-10T22:44:53.771Z,1.90
2023-05-10T22:47:21.535Z,1.75
2023-05-10T22:49:49.188Z,4.53
2023-05-10T22:52:16.911Z,2.90
2023-05-10T22:54:44.597Z,2.80
2023-05-10T22:57:12.655Z,4.22
2023-05-10T22:59:41.009Z,2.67
2023-05-10T23:02:09.125Z,2.92
2023-05-10T23:04:37.167Z,2.88
2023-05-10T23:07:05.284Z,2.22
2023-05-10T23:09:33.229Z,3.08
2023-05-10T23:12:01.596Z,4.82
2023-05-10T23:14:30.426Z,3.38
2023-05-10T23:16:58.674Z,3.03
2023-05-10T23:19:26.456Z,5.10
2023-05-10T23:21:54.212Z,4.50
2023-05-10T23:24:22.205Z,5.55
2023-05-10T23:26:49.853Z,4.53
2023-05-10T23:29:17.703Z,4.57
2023-05-10T23:31:49.255Z,3.35
2023-05-10T23:34:17.626Z,4.68
2023-05-10T23:36:45.366Z,2.92
2023-05-10T23:39:13.618Z,2.90
2023-05-10T23:41:41.599Z,3.80
2023-05-10T23:44:09.364Z,2.95
2023-05-10T23:46:37.477Z,2.17
2023-05-10T23:49:05.294Z,4.30
2023-05-10T23:51:33.114Z,2.05
2023-05-10T23:54:00.902Z,1.33
2023-05-10T23:56:28.755Z,1.23
2023-05-10T23:58:56.622Z,1.88
